createdAt,value
2018-09-21T00:00:48.540Z,21.10
2018-09-21T00:03:16.997Z,21.10
2018-09-21T00:05:45.461Z,21.00
2018-09-21T00:08:13.892Z,21.10
2018-09-21T00:10:42.373Z,21.10
2018-09-21T00:13:10.799Z,21.10
2018-09-21T00:15:39.255Z,21.10
2018-09-21T00:18:07.670Z,21.10
2018-09-21T00:20:36.113Z,21.10
2018-09-21T00:23:04.556Z,21.10
2018-09-21T00:25:33.008Z,21.10
2018-09-21T00:28:01.435Z,21.10
2018-09-21T00:30:29.889Z,21.10
2018-09-21T00:32:58.318Z,21.00
2018-09-21T00:35:26.765Z,21.10
2018-09-21T00:37:55.241Z,21.10
2018-09-21T00:40:23.787Z,21.10
2018-09-21T00:42:52.209Z,21.00
2018-09-21T00:45:20.670Z,21.00
2018-09-21T00:47:49.105Z,21.10
2018-09-21T00:50:17.586Z,21.10
2018-09-21T00:52:46.027Z,21.00
2018-09-21T00:55:14.485Z,21.00
2018-09-21T00:57:42.910Z,20.90
2018-09-21T01:00:11.357Z,20.90
2018-09-21T01:02:39.773Z,20.90
2018-09-21T01:05:08.226Z,20.90
2018-09-21T01:07:36.652Z,20.80
2018-09-21T01:10:05.265Z,20.80
2018-09-21T01:12:33.686Z,20.80
2018-09-21T01:15:02.220Z,20.80
2018-09-21T01:17:30.691Z,20.80
2018-09-21T01:19:59.156Z,20.80
2018-09-21T01:22:27.593Z,20.90
2018-09-21T01:24:56.025Z,20.80
2018-09-21T01:27:24.458Z,20.80
2018-09-21T01:29:52.930Z,20.90
2018-09-21T01:32:21.701Z,20.90
2018-09-21T01:34:50.147Z,20.90
2018-09-21T01:37:18.580Z,20.80
2018-09-21T01:39:47.041Z,20.80
2018-09-21T01:42:15.503Z,20.80
2018-09-21T01:44:43.934Z,20.80
2018-09-21T01:47:12.355Z,20.70
2018-09-21T01:49:40.849Z,20.70
2018-09-21T01:52:09.296Z,20.70
2018-09-21T01:54:37.726Z,20.80
2018-09-21T01:57:05.850Z,20.70
2018-09-21T01:59:34.276Z,20.70
2018-09-21T02:02:02.709Z,20.70
2018-09-21T02:04:36.425Z,20.60
2018-09-21T02:07:04.925Z,20.60
2018-09-21T02:09:33.408Z,20.60
2018-09-21T02:12:01.926Z,20.60
2018-09-21T02:14:30.433Z,20.50
2018-09-21T02:16:58.977Z,20.60
2018-09-21T02:19:27.510Z,20.60
2018-09-21T02:21:55.953Z,20.70
2018-09-21T02:24:24.397Z,20.70
2018-09-21T02:26:52.829Z,20.70
2018-09-21T02:29:21.254Z,20.70
2018-09-21T02:31:50.015Z,20.70
2018-09-21T02:34:19.001Z,20.70
2018-09-21T02:36:47.481Z,20.60
2018-09-21T02:39:15.885Z,20.60
2018-09-21T02:41:44.750Z,20.60
2018-09-21T02:44:13.200Z,20.60
2018-09-21T02:46:41.986Z,20.60
2018-09-21T02:49:10.434Z,20.50
2018-09-21T02:51:38.875Z,20.50
2018-09-21T02:54:07.379Z,20.60
2018-09-21T02:56:36.487Z,20.60
2018-09-21T02:59:05.056Z,20.50
2018-09-21T03:01:33.515Z,20.50
2018-09-21T03:04:01.960Z,20.60
2018-09-21T03:06:30.416Z,20.50
2018-09-21T03:08:58.898Z,20.50
2018-09-21T03:11:27.334Z,20.40
2018-09-21T03:13:55.757Z,20.40
2018-09-21T03:16:25.156Z,20.40
2018-09-21T03:18:53.613Z,20.40
2018-09-21T03:21:22.354Z,20.40
2018-09-21T03:23:50.863Z,20.40
2018-09-21T03:26:19.268Z,20.40
2018-09-21T03:28:47.712Z,20.40
2018-09-21T03:31:16.153Z,20.40
2018-09-21T03:33:44.634Z,20.30
2018-09-21T03:36:13.057Z,20.30
2018-09-21T03:38:41.497Z,20.30
2018-09-21T03:41:10.062Z,20.30
2018-09-21T03:43:38.567Z,20.30
2018-09-21T03:46:07.366Z,20.30
2018-09-21T03:48:35.812Z,20.30
2018-09-21T03:51:04.419Z,20.30
2018-09-21T03:53:32.862Z,20.30
2018-09-21T03:56:01.299Z,20.30
2018-09-21T03:58:29.736Z,20.30
2018-09-21T04:00:58.204Z,20.30
2018-09-21T04:03:26.623Z,20.30
2018-09-21T04:05:55.059Z,20.30
2018-09-21T04:08:23.530Z,20.30
2018-09-21T04:10:51.986Z,20.30
2018-09-21T04:13:20.410Z,20.30
2018-09-21T04:15:48.894Z,20.30
2018-09-21T04:18:17.314Z,20.40
2018-09-21T04:20:45.845Z,20.30
2018-09-21T04:23:14.329Z,20.30
2018-09-21T04:25:42.780Z,20.30
2018-09-21T04:28:11.193Z,20.30
2018-09-21T04:30:39.745Z,20.30
2018-09-21T04:33:08.197Z,20.30
2018-09-21T04:35:36.625Z,20.30
2018-09-21T04:38:05.081Z,20.30
2018-09-21T04:40:33.529Z,20.30
2018-09-21T04:43:01.994Z,20.30
2018-09-21T04:45:30.466Z,20.30
2018-09-21T04:47:58.905Z,20.30
2018-09-21T04:50:27.351Z,20.30
2018-09-21T04:52:55.922Z,20.30
2018-09-21T04:55:24.393Z,20.20
2018-09-21T04:57:52.880Z,20.20
2018-09-21T05:00:21.337Z,20.30
2018-09-21T05:02:49.804Z,20.30
2018-09-21T05:05:18.269Z,20.40
2018-09-21T05:07:46.710Z,20.40
2018-09-21T05:10:15.133Z,20.50
2018-09-21T05:12:43.569Z,20.50
2018-09-21T05:15:12.005Z,20.50
2018-09-21T05:17:40.473Z,20.60
2018-09-21T05:20:08.977Z,20.70
2018-09-21T05:22:37.426Z,20.70
2018-09-21T05:25:06.337Z,20.70
2018-09-21T05:27:34.878Z,20.80
2018-09-21T05:30:03.341Z,20.80
2018-09-21T05:32:31.793Z,20.80
2018-09-21T05:35:00.248Z,20.90
2018-09-21T05:37:28.662Z,20.90
2018-09-21T05:39:57.117Z,21.00
2018-09-21T05:42:25.635Z,21.00
2018-09-21T05:44:54.057Z,21.00
2018-09-21T05:47:22.481Z,21.00
2018-09-21T05:49:50.949Z,21.10
2018-09-21T05:52:19.400Z,21.00
2018-09-21T05:54:47.825Z,21.10
2018-09-21T05:57:16.281Z,21.10
2018-09-21T05:59:45.092Z,21.10
2018-09-21T06:02:13.787Z,21.10
2018-09-21T06:04:45.151Z,21.10
2018-09-21T06:07:14.333Z,21.10
2018-09-21T06:09:49.382Z,21.00
2018-09-21T06:12:17.814Z,21.00
2018-09-21T06:14:46.501Z,21.00
2018-09-21T06:17:14.925Z,20.90
2018-09-21T06:19:43.686Z,20.90
2018-09-21T06:22:12.144Z,20.90
2018-09-21T06:24:41.357Z,20.80
2018-09-21T06:27:10.499Z,20.80
2018-09-21T06:29:38.933Z,20.80
2018-09-21T06:32:07.382Z,20.80
2018-09-21T06:34:35.864Z,20.80
2018-09-21T06:37:04.606Z,20.70
2018-09-21T06:39:33.502Z,20.70
2018-09-21T06:42:01.999Z,20.70
2018-09-21T06:44:30.453Z,20.70
2018-09-21T06:46:59.208Z,20.70
2018-09-21T06:49:28.582Z,20.80
2018-09-21T06:51:57.098Z,20.80
2018-09-21T06:54:25.781Z,20.80
2018-09-21T06:56:54.600Z,20.70
2018-09-21T06:59:23.109Z,20.70
2018-09-21T07:01:51.622Z,20.60
2018-09-21T07:04:20.116Z,20.60
2018-09-21T07:06:48.650Z,20.60
2018-09-21T07:09:17.175Z,20.60
2018-09-21T07:11:45.604Z,20.50
2018-09-21T07:14:14.061Z,20.50
2018-09-21T07:16:42.595Z,20.40
2018-09-21T07:19:11.076Z,20.30
2018-09-21T07:21:41.282Z,20.40
2018-09-21T07:24:09.713Z,20.40
2018-09-21T07:26:38.180Z,20.40
2018-09-21T07:29:06.750Z,20.40
2018-09-21T07:31:35.176Z,20.50
2018-09-21T07:34:03.639Z,20.50
2018-09-21T07:36:32.119Z,20.50
2018-09-21T07:39:00.686Z,20.70
2018-09-21T07:41:29.155Z,20.70
2018-09-21T07:43:57.631Z,20.70
2018-09-21T07:46:26.138Z,20.70
2018-09-21T07:48:54.601Z,20.70
2018-09-21T07:51:23.053Z,20.60
2018-09-21T07:53:51.509Z,20.60
2018-09-21T07:56:19.947Z,20.40
2018-09-21T07:58:48.441Z,20.30
2018-09-21T08:01:16.885Z,20.00
2018-09-21T08:03:45.382Z,19.90
2018-09-21T08:06:13.859Z,19.60
2018-09-21T08:08:42.282Z,19.30
2018-09-21T08:11:10.782Z,18.90
2018-09-21T08:13:39.307Z,18.60
2018-09-21T08:16:07.749Z,18.40
2018-09-21T08:18:37.206Z,18.00
2018-09-21T08:21:05.692Z,17.60
2018-09-21T08:23:34.213Z,17.10
2018-09-21T08:26:02.673Z,16.60
2018-09-21T08:28:31.117Z,16.00
2018-09-21T08:31:00.155Z,15.70
2018-09-21T08:33:28.614Z,15.50
2018-09-21T08:35:57.043Z,15.40
2018-09-21T08:38:25.506Z,15.20
2018-09-21T08:40:53.924Z,15.10
2018-09-21T08:43:22.381Z,15.00
2018-09-21T08:45:50.853Z,14.90
2018-09-21T08:48:19.331Z,14.90
2018-09-21T08:50:47.825Z,14.90
2018-09-21T08:53:16.245Z,14.80
2018-09-21T08:55:44.725Z,14.70
2018-09-21T08:58:13.166Z,14.60
2018-09-21T09:00:41.613Z,14.50
2018-09-21T09:03:10.189Z,14.50
2018-09-21T09:05:38.605Z,14.50
2018-09-21T09:08:08.269Z,14.50
2018-09-21T09:10:36.694Z,14.40
2018-09-21T09:13:05.161Z,14.40
2018-09-21T09:15:33.628Z,14.40
2018-09-21T09:18:02.078Z,14.40
2018-09-21T09:20:30.503Z,14.40
2018-09-21T09:22:59.001Z,14.40
2018-09-21T09:25:27.769Z,14.40
2018-09-21T09:27:56.198Z,14.40
2018-09-21T09:30:24.626Z,14.40
2018-09-21T09:32:53.098Z,14.30
2018-09-21T09:35:21.546Z,14.30
2018-09-21T09:37:49.986Z,14.40
2018-09-21T09:40:18.450Z,14.40
2018-09-21T09:42:46.938Z,14.40
2018-09-21T09:45:15.617Z,14.30
2018-09-21T09:47:44.093Z,14.50
2018-09-21T09:50:12.835Z,14.50
2018-09-21T09:52:41.941Z,14.60
2018-09-21T09:55:10.408Z,14.70
2018-09-21T09:57:39.309Z,14.80
2018-09-21T10:00:08.355Z,14.80
2018-09-21T10:02:36.938Z,14.90
2018-09-21T10:05:05.663Z,15.00
2018-09-21T10:07:34.120Z,15.10
2018-09-21T10:10:02.566Z,15.20
2018-09-21T10:12:31.040Z,15.30
2018-09-21T10:14:59.492Z,15.40
2018-09-21T10:17:27.920Z,15.50
2018-09-21T10:19:56.385Z,15.70
2018-09-21T10:22:25.369Z,15.70
2018-09-21T10:24:53.854Z,15.70
2018-09-21T10:27:22.416Z,15.70
2018-09-21T10:29:51.727Z,15.70
2018-09-21T10:32:20.294Z,15.70
2018-09-21T10:34:48.752Z,15.80
2018-09-21T10:37:17.568Z,15.90
2018-09-21T10:39:46.053Z,16.00
2018-09-21T10:42:14.562Z,16.00
2018-09-21T10:44:43.027Z,16.10
2018-09-21T10:47:11.537Z,16.10
2018-09-21T10:49:39.998Z,16.10
2018-09-21T10:52:17.462Z,16.30
2018-09-21T10:54:45.952Z,16.40
2018-09-21T10:57:14.376Z,16.60
2018-09-21T10:59:42.825Z,16.70
2018-09-21T11:02:11.298Z,16.70
2018-09-21T11:04:39.801Z,16.80
2018-09-21T11:07:08.252Z,16.90
2018-09-21T11:09:36.681Z,17.00
2018-09-21T11:12:05.898Z,17.10
2018-09-21T11:14:34.354Z,17.30
2018-09-21T11:17:02.822Z,17.40
2018-09-21T11:19:31.339Z,17.40
2018-09-21T11:21:59.802Z,17.40
2018-09-21T11:24:28.263Z,17.50
2018-09-21T11:26:56.722Z,17.30
2018-09-21T11:29:25.244Z,17.20
2018-09-21T11:31:53.710Z,16.90
2018-09-21T11:34:22.191Z,16.30
2018-09-21T11:36:51.578Z,15.80
2018-09-21T11:39:20.020Z,15.50
2018-09-21T11:41:49.646Z,15.30
2018-09-21T11:44:18.118Z,15.10
2018-09-21T11:46:46.988Z,15.10
2018-09-21T11:49:16.368Z,15.10
2018-09-21T11:51:44.945Z,15.20
2018-09-21T11:54:13.647Z,15.30
2018-09-21T11:56:42.412Z,15.40
2018-09-21T11:59:10.973Z,15.50
2018-09-21T12:01:39.484Z,15.60
2018-09-21T12:04:07.981Z,15.60
2018-09-21T12:06:36.428Z,15.70
2018-09-21T12:09:06.032Z,15.70
2018-09-21T12:11:34.794Z,15.80
2018-09-21T12:14:03.504Z,15.80
2018-09-21T12:16:33.252Z,15.70
2018-09-21T12:19:01.826Z,15.70
2018-09-21T12:21:30.397Z,15.80
2018-09-21T12:23:59.546Z,15.70
2018-09-21T12:26:29.195Z,15.70
2018-09-21T12:28:57.675Z,15.70
2018-09-21T12:31:27.009Z,15.80
2018-09-21T12:33:56.671Z,15.80
2018-09-21T12:36:25.171Z,15.80
2018-09-21T12:38:53.858Z,15.90
2018-09-21T12:41:23.730Z,15.90
2018-09-21T12:43:52.217Z,15.80
2018-09-21T12:46:25.541Z,15.90
2018-09-21T12:48:56.315Z,15.90
2018-09-21T12:51:24.877Z,15.90
2018-09-21T12:53:53.731Z,16.00
2018-09-21T12:56:22.267Z,16.00
2018-09-21T12:58:51.136Z,16.00
2018-09-21T13:01:19.653Z,16.10
2018-09-21T13:03:49.929Z,16.10
2018-09-21T13:06:18.438Z,16.20
2018-09-21T13:08:47.109Z,16.20
2018-09-21T13:11:15.581Z,16.20
2018-09-21T13:13:44.030Z,16.20
2018-09-21T13:16:12.566Z,16.20
2018-09-21T13:18:41.386Z,16.20
2018-09-21T13:21:09.873Z,16.10
2018-09-21T13:23:38.303Z,16.00
2018-09-21T13:26:06.820Z,16.00
2018-09-21T13:28:35.345Z,15.90
2018-09-21T13:31:03.871Z,15.90
2018-09-21T13:33:32.426Z,16.00
2018-09-21T13:36:00.901Z,16.10
2018-09-21T13:38:29.368Z,16.20
2018-09-21T13:40:57.847Z,16.30
2018-09-21T13:43:26.368Z,16.30
2018-09-21T13:45:54.825Z,16.30
2018-09-21T13:48:23.302Z,16.30
2018-09-21T13:50:51.780Z,16.30
2018-09-21T13:53:20.238Z,16.40
2018-09-21T13:55:48.990Z,16.50
2018-09-21T13:58:17.445Z,16.40
2018-09-21T14:00:45.906Z,16.40
2018-09-21T14:03:14.353Z,16.30
2018-09-21T14:05:42.880Z,16.10
2018-09-21T14:08:11.363Z,16.10
2018-09-21T14:10:39.801Z,16.10
2018-09-21T14:13:09.361Z,16.10
2018-09-21T14:15:37.852Z,16.20
2018-09-21T14:18:06.382Z,16.30
2018-09-21T14:20:34.859Z,16.30
2018-09-21T14:23:03.636Z,16.40
2018-09-21T14:25:32.061Z,16.50
2018-09-21T14:28:00.524Z,16.50
2018-09-21T14:30:28.970Z,16.50
2018-09-21T14:32:57.426Z,16.60
2018-09-21T14:35:28.712Z,16.60
2018-09-21T14:37:57.197Z,16.60
2018-09-21T14:40:26.599Z,16.60
2018-09-21T14:42:55.061Z,16.40
2018-09-21T14:45:23.546Z,16.30
2018-09-21T14:47:52.026Z,16.30
2018-09-21T14:50:20.451Z,16.40
2018-09-21T14:52:48.975Z,16.50
2018-09-21T14:55:17.457Z,16.60
2018-09-21T14:57:45.888Z,16.50
2018-09-21T15:00:14.370Z,16.60
2018-09-21T15:02:42.790Z,16.60
2018-09-21T15:05:11.240Z,16.60
2018-09-21T15:07:39.696Z,16.70
2018-09-21T15:10:08.169Z,16.70
2018-09-21T15:12:36.665Z,16.60
2018-09-21T15:15:05.462Z,16.50
2018-09-21T15:17:33.912Z,16.40
2018-09-21T15:20:02.382Z,16.50
2018-09-21T15:22:30.798Z,16.40
2018-09-21T15:24:59.241Z,16.40
2018-09-21T15:27:27.685Z,16.40
2018-09-21T15:29:56.191Z,16.30
2018-09-21T15:32:24.629Z,16.30
2018-09-21T15:34:53.266Z,16.40
2018-09-21T15:37:21.721Z,16.40
2018-09-21T15:39:50.137Z,16.40
2018-09-21T15:42:18.589Z,16.50
2018-09-21T15:44:47.034Z,16.60
2018-09-21T15:47:15.498Z,16.50
2018-09-21T15:49:43.946Z,16.60
2018-09-21T15:52:12.369Z,16.50
2018-09-21T15:54:40.849Z,16.50
2018-09-21T15:57:09.282Z,16.60
2018-09-21T15:59:37.783Z,16.60
2018-09-21T16:02:06.245Z,16.70
2018-09-21T16:04:34.724Z,16.60
2018-09-21T16:07:03.234Z,16.60
2018-09-21T16:09:31.639Z,16.60
2018-09-21T16:12:00.097Z,16.50
2018-09-21T16:14:28.773Z,16.40
2018-09-21T16:16:57.198Z,16.30
2018-09-21T16:19:25.713Z,16.40
2018-09-21T16:21:54.160Z,16.30
2018-09-21T16:24:22.612Z,16.20
2018-09-21T16:26:51.193Z,16.10
2018-09-21T16:29:19.669Z,16.10
2018-09-21T16:31:48.134Z,16.00
2018-09-21T16:34:16.593Z,15.90
2018-09-21T16:36:45.114Z,15.90
2018-09-21T16:39:13.496Z,15.90
2018-09-21T16:41:42.142Z,15.80
2018-09-21T16:44:11.510Z,15.70
2018-09-21T16:46:39.995Z,15.70
2018-09-21T16:49:08.449Z,15.80
2018-09-21T16:51:36.943Z,15.80
2018-09-21T16:54:05.360Z,15.80
2018-09-21T16:56:33.807Z,15.80
2018-09-21T16:59:02.339Z,15.90
2018-09-21T17:01:30.757Z,15.80
2018-09-21T17:03:59.197Z,15.70
2018-09-21T17:06:27.649Z,15.60
2018-09-21T17:08:56.101Z,15.60
2018-09-21T17:11:24.729Z,15.50
2018-09-21T17:13:53.131Z,15.40
2018-09-21T17:16:22.578Z,15.40
2018-09-21T17:18:51.924Z,15.30
2018-09-21T17:21:20.603Z,15.30
2018-09-21T17:23:49.134Z,15.30
2018-09-21T17:26:17.754Z,15.20
2018-09-21T17:28:46.239Z,15.10
2018-09-21T17:31:14.738Z,15.10
2018-09-21T17:33:43.222Z,15.10
2018-09-21T17:36:11.742Z,15.10
2018-09-21T17:38:40.209Z,15.00
2018-09-21T17:41:08.715Z,15.00
2018-09-21T17:43:37.144Z,15.00
2018-09-21T17:46:05.661Z,15.00
2018-09-21T17:48:34.093Z,15.00
2018-09-21T17:51:02.534Z,15.00
2018-09-21T17:53:31.137Z,14.90
2018-09-21T17:55:59.590Z,14.80
2018-09-21T17:58:28.058Z,14.80
2018-09-21T18:00:56.800Z,14.70
2018-09-21T18:03:25.247Z,14.80
2018-09-21T18:05:53.681Z,14.80
2018-09-21T18:08:22.133Z,14.70
2018-09-21T18:10:50.561Z,14.70
2018-09-21T18:13:19.021Z,14.60
2018-09-21T18:15:47.496Z,14.60
2018-09-21T18:18:15.940Z,14.60
2018-09-21T18:20:44.526Z,14.50
2018-09-21T18:23:13.026Z,14.50
2018-09-21T18:25:41.689Z,14.50
2018-09-21T18:28:10.096Z,14.40
2018-09-21T18:30:38.715Z,14.50
2018-09-21T18:33:07.366Z,14.40
2018-09-21T18:35:35.858Z,14.40
2018-09-21T18:38:04.306Z,14.40
2018-09-21T18:40:32.854Z,14.40
2018-09-21T18:43:01.408Z,14.40
2018-09-21T18:45:30.048Z,14.30
2018-09-21T18:47:58.620Z,14.30
2018-09-21T18:50:27.157Z,14.30
2018-09-21T18:52:55.664Z,14.30
2018-09-21T18:55:24.222Z,14.30
2018-09-21T18:57:52.752Z,14.30
2018-09-21T19:00:21.244Z,14.30
2018-09-21T19:02:49.729Z,14.20
2018-09-21T19:05:18.236Z,14.20
2018-09-21T19:07:46.760Z,14.30
2018-09-21T19:10:15.312Z,14.20
2018-09-21T19:12:43.806Z,14.20
2018-09-21T19:15:12.366Z,14.20
2018-09-21T19:17:40.883Z,14.20
2018-09-21T19:20:10.089Z,14.20
2018-09-21T19:22:38.569Z,14.10
2018-09-21T19:25:07.235Z,14.10
2018-09-21T19:27:35.919Z,14.10
2018-09-21T19:30:04.601Z,14.10
2018-09-21T19:32:33.173Z,14.00
2018-09-21T19:35:01.655Z,14.00
2018-09-21T19:37:30.189Z,14.00
2018-09-21T19:39:58.694Z,14.00
2018-09-21T19:42:27.258Z,14.00
2018-09-21T19:44:55.742Z,14.00
2018-09-21T19:47:24.220Z,14.00
2018-09-21T19:49:52.645Z,13.90
2018-09-21T19:52:21.126Z,13.90
2018-09-21T19:54:49.647Z,13.90
2018-09-21T19:57:18.117Z,13.80
2018-09-21T19:59:46.570Z,13.90
2018-09-21T20:02:15.043Z,13.90
2018-09-21T20:04:43.538Z,13.80
2018-09-21T20:07:11.957Z,13.80
2018-09-21T20:09:40.455Z,13.80
2018-09-21T20:12:08.987Z,13.70
2018-09-21T20:14:37.484Z,13.80
2018-09-21T20:17:06.040Z,13.70
2018-09-21T20:19:34.508Z,13.70
2018-09-21T20:22:02.970Z,13.70
2018-09-21T20:24:31.589Z,13.70
2018-09-21T20:27:00.106Z,13.60
2018-09-21T20:29:28.651Z,13.70
2018-09-21T20:32:06.426Z,13.70
2018-09-21T20:34:34.885Z,13.60
2018-09-21T20:37:03.357Z,13.60
2018-09-21T20:39:31.866Z,13.60
2018-09-21T20:42:00.350Z,13.60
2018-09-21T20:44:28.830Z,13.60
2018-09-21T20:46:57.281Z,13.60
2018-09-21T20:49:25.787Z,13.60
2018-09-21T20:51:54.304Z,13.50
2018-09-21T20:54:22.701Z,13.50
2018-09-21T20:56:51.190Z,13.50
2018-09-21T20:59:19.704Z,13.40
2018-09-21T21:01:48.152Z,13.40
2018-09-21T21:04:16.617Z,13.40
2018-09-21T21:06:45.093Z,13.40
2018-09-21T21:09:15.352Z,13.30
2018-09-21T21:11:43.885Z,13.30
2018-09-21T21:14:13.370Z,13.30
2018-09-21T21:16:41.833Z,13.30
2018-09-21T21:19:10.272Z,13.30
2018-09-21T21:21:38.757Z,13.20
2018-09-21T21:24:07.328Z,13.20
2018-09-21T21:26:35.828Z,13.20
2018-09-21T21:29:04.280Z,13.20
2018-09-21T21:31:32.774Z,13.10
2018-09-21T21:34:01.224Z,13.20
2018-09-21T21:36:30.099Z,13.10
2018-09-21T21:38:58.549Z,13.10
2018-09-21T21:41:27.039Z,13.20
2018-09-21T21:43:55.517Z,13.10
2018-09-21T21:46:23.993Z,13.10
2018-09-21T21:48:52.507Z,13.10
2018-09-21T21:51:20.982Z,13.10
2018-09-21T21:53:49.420Z,13.10
2018-09-21T21:56:17.894Z,13.10
2018-09-21T21:58:46.329Z,13.10
2018-09-21T22:01:19.978Z,13.10
2018-09-21T22:03:49.430Z,13.10
2018-09-21T22:06:17.874Z,13.10
2018-09-21T22:08:46.334Z,13.10
2018-09-21T22:11:20.142Z,13.10
2018-09-21T22:13:53.941Z,13.00
2018-09-21T22:16:22.405Z,13.00
2018-09-21T22:18:50.877Z,13.10
2018-09-21T22:21:19.331Z,13.10
2018-09-21T22:23:47.757Z,13.10
2018-09-21T22:26:16.253Z,13.10
2018-09-21T22:28:44.700Z,13.10
2018-09-21T22:31:13.136Z,13.10
2018-09-21T22:33:41.590Z,13.10
2018-09-21T22:36:10.071Z,13.10
2018-09-21T22:38:38.513Z,13.10
2018-09-21T22:41:06.941Z,13.10
2018-09-21T22:43:35.425Z,13.10
2018-09-21T22:46:03.863Z,13.10
2018-09-21T22:48:32.402Z,13.10
2018-09-21T22:51:00.833Z,13.10
2018-09-21T22:53:29.342Z,13.10
2018-09-21T22:55:57.809Z,13.10
2018-09-21T22:58:26.255Z,13.10
2018-09-21T23:00:54.740Z,13.00
2018-09-21T23:03:23.162Z,13.10
2018-09-21T23:05:51.621Z,13.10
2018-09-21T23:08:20.054Z,13.10
2018-09-21T23:10:48.550Z,13.00
2018-09-21T23:13:17.011Z,13.00
2018-09-21T23:15:45.479Z,13.00
2018-09-21T23:18:13.961Z,12.90
2018-09-21T23:20:42.410Z,13.00
2018-09-21T23:23:10.875Z,13.00
2018-09-21T23:25:39.357Z,12.90
2018-09-21T23:28:08.747Z,12.80
2018-09-21T23:30:37.200Z,12.80
2018-09-21T23:33:05.693Z,12.90
2018-09-21T23:35:34.153Z,12.80
2018-09-21T23:38:02.619Z,12.80
2018-09-21T23:40:31.109Z,12.80
2018-09-21T23:42:59.721Z,12.70
2018-09-21T23:45:28.213Z,12.70
2018-09-21T23:47:56.659Z,12.70
2018-09-21T23:50:25.099Z,12.70
2018-09-21T23:52:53.846Z,12.70
2018-09-21T23:55:22.268Z,12.60
2018-09-21T23:57:50.727Z,12.60
